Time;durP1;ratioP1;P1;durP2;ratioP2;P2;SDS_P1;SDS_P2;PMS_P1;PMS_P2;Temp;Humidity;BMP_temperature;BMP_pressure;BME280_temperature;BME280_humidity;BME280_pressure;Samples;Min_cycle;Max_cycle;Signal;HPM_P1;HPM_P2
2023/11/24 00:02:01;;;;;;;22.17;2.40;;;;;;;5.48;100.00;100345.09;4905398;29;20028;-74
2023/11/24 00:04:28;;;;;;;23.15;3.08;;;;;;;5.47;100.00;100338.16;4894412;29;20410;-73
2023/11/24 00:06:55;;;;;;;18.63;2.45;;;;;;;5.47;100.00;100335.50;4887653;29;20040;-74
2023/11/24 00:09:23;;;;;;;17.70;2.40;;;;;;;5.46;100.00;100331.25;4888886;29;20502;-77
2023/11/24 00:11:50;;;;;;;17.83;2.50;;;;;;;5.44;100.00;100314.78;4893735;29;20076;-74
2023/11/24 00:14:16;;;;;;;17.05;2.60;;;;;;;5.40;100.00;100305.69;4895971;29;20047;-78
2023/11/24 00:16:45;;;;;;;16.90;2.67;;;;;;;5.41;100.00;100357.75;4905775;29;20040;-75
2023/11/24 00:19:12;;;;;;;19.92;3.20;;;;;;;5.44;100.00;100395.25;4890833;29;20096;-75
2023/11/24 00:21:41;;;;;;;20.33;2.83;;;;;;;5.40;100.00;100403.94;4884298;29;20830;-79
2023/11/24 00:24:07;;;;;;;12.93;2.28;;;;;;;5.37;100.00;100409.75;4888577;29;20123;-79
2023/11/24 00:26:33;;;;;;;12.95;2.00;;;;;;;5.24;100.00;100413.53;4879220;29;20577;-74
2023/11/24 00:29:00;;;;;;;5.95;1.10;;;;;;;5.04;100.00;100390.13;4904567;29;20028;-76
2023/11/24 00:31:27;;;;;;;7.75;1.30;;;;;;;5.01;100.00;100390.59;4893245;29;20067;-78
2023/11/24 00:33:58;;;;;;;7.53;1.00;;;;;;;5.04;100.00;100390.13;4895669;29;20155;-80
2023/11/24 00:36:24;;;;;;;7.15;1.30;;;;;;;4.92;100.00;100386.75;4893736;29;20040;-81
2023/11/24 00:38:50;;;;;;;9.93;1.60;;;;;;;4.80;100.00;100393.97;4893166;29;20032;-79
2023/11/24 00:41:18;;;;;;;6.22;1.25;;;;;;;4.65;100.00;100384.69;4889468;29;20628;-80
2023/11/24 00:43:45;;;;;;;14.75;1.70;;;;;;;4.57;100.00;100379.78;4889039;29;20067;-77
2023/11/24 00:46:11;;;;;;;9.82;1.42;;;;;;;4.50;100.00;100384.44;4896672;29;20035;-77
2023/11/24 00:48:40;;;;;;;8.82;1.63;;;;;;;4.34;100.00;100378.06;4908493;29;20127;-76
2023/11/24 00:51:07;;;;;;;6.40;1.40;;;;;;;4.29;100.00;100379.81;4916427;29;20036;-74
2023/11/24 00:53:35;;;;;;;9.20;1.67;;;;;;;4.26;100.00;100383.72;4904268;29;20043;-74
2023/11/24 00:56:01;;;;;;;9.25;1.50;;;;;;;4.20;100.00;100383.84;4892340;29;20406;-75
2023/11/24 00:58:27;;;;;;;7.47;1.40;;;;;;;4.14;100.00;100379.53;4869326;29;20502;-75
2023/11/24 01:00:54;;;;;;;7.90;2.08;;;;;;;4.16;100.00;100377.44;4921525;29;20047;-75
2023/11/24 01:03:21;;;;;;;8.25;1.73;;;;;;;4.07;100.00;100369.88;4906000;29;20035;-75
2023/11/24 01:05:48;;;;;;;6.60;1.85;;;;;;;4.02;100.00;100367.09;4889790;29;20533;-77
2023/11/24 01:08:15;;;;;;;5.88;1.23;;;;;;;3.99;100.00;100367.56;4897802;29;20040;-78
2023/11/24 01:10:41;;;;;;;6.38;1.33;;;;;;;4.03;100.00;100370.56;4883021;29;20101;-78
2023/11/24 01:13:07;;;;;;;5.60;1.00;;;;;;;3.96;100.00;100351.34;4888785;29;20040;-79
2023/11/24 01:15:34;;;;;;;3.83;0.80;;;;;;;3.93;100.00;100352.63;4911247;29;20028;-79
2023/11/24 01:18:00;;;;;;;8.05;1.00;;;;;;;3.95;100.00;100366.44;4912857;29;20067;-76
2023/11/24 01:20:26;;;;;;;6.50;1.02;;;;;;;3.94;100.00;100374.63;4879641;29;20131;-77
2023/11/24 01:22:52;;;;;;;6.97;1.10;;;;;;;3.93;100.00;100355.28;4894254;29;20456;-75
2023/11/24 01:25:21;;;;;;;5.35;0.85;;;;;;;3.95;100.00;100355.84;4889331;29;20036;-76
2023/11/24 01:27:47;;;;;;;6.53;1.20;;;;;;;3.94;100.00;100348.94;4888604;29;20762;-78
2023/11/24 01:30:15;;;;;;;8.02;0.95;;;;;;;3.90;100.00;100357.56;4891806;29;20545;-76
2023/11/24 01:32:40;;;;;;;3.00;0.80;;;;;;;3.93;100.00;100379.13;4906027;29;20046;-77
2023/11/24 01:35:07;;;;;;;7.53;1.33;;;;;;;3.96;100.00;100399.84;4907813;29;20032;-80
2023/11/24 01:37:33;;;;;;;9.60;1.10;;;;;;;3.97;100.00;100388.19;4890681;29;20044;-74
2023/11/24 01:39:59;;;;;;;5.20;1.17;;;;;;;3.96;100.00;100389.25;4893884;29;20577;-73
2023/11/24 01:42:25;;;;;;;9.27;1.60;;;;;;;3.95;100.00;100387.63;4888677;29;20060;-73
2023/11/24 01:44:51;;;;;;;8.32;1.63;;;;;;;3.96;100.00;100386.59;4879474;29;20039;-73
2023/11/24 01:47:16;;;;;;;6.03;1.42;;;;;;;3.97;100.00;100390.84;4889939;29;20043;-73
2023/11/24 01:49:44;;;;;;;5.22;1.40;;;;;;;3.96;100.00;100388.44;4889570;29;20405;-73
2023/11/24 01:52:09;;;;;;;4.47;1.15;;;;;;;3.93;100.00;100395.03;4901449;29;20135;-73
2023/11/24 01:54:37;;;;;;;11.13;1.13;;;;;;;3.90;100.00;100390.16;4879143;29;20150;-73
2023/11/24 01:57:09;;;;;;;5.95;1.13;;;;;;;3.89;100.00;100387.75;4903826;29;20047;-72
2023/11/24 01:59:35;;;;;;;5.40;1.10;;;;;;;3.83;100.00;100379.69;4896392;29;20552;-76
2023/11/24 02:02:01;;;;;;;5.85;0.90;;;;;;;3.80;100.00;100384.69;4904216;29;20035;-74
2023/11/24 02:04:28;;;;;;;4.28;0.80;;;;;;;3.76;100.00;100375.56;4893194;29;20152;-74
2023/11/24 02:06:54;;;;;;;8.50;1.50;;;;;;;3.78;100.00;100368.19;4890684;29;20539;-75
2023/11/24 02:09:21;;;;;;;5.85;0.95;;;;;;;3.69;100.00;100377.56;4875026;29;20176;-75
2023/11/24 02:11:47;;;;;;;13.55;1.73;;;;;;;3.65;100.00;100382.50;4907844;29;20042;-74
2023/11/24 02:14:13;;;;;;;5.28;1.13;;;;;;;3.70;100.00;100373.84;4901456;29;20094;-75
2023/11/24 02:16:40;;;;;;;6.40;1.08;;;;;;;3.73;100.00;100374.22;4890204;29;20039;-75
2023/11/24 02:19:06;;;;;;;4.38;1.23;;;;;;;3.74;100.00;100369.72;4901048;29;20044;-74
2023/11/24 02:21:32;;;;;;;5.97;1.38;;;;;;;3.76;100.00;100368.44;4891105;29;20042;-75
2023/11/24 02:23:59;;;;;;;6.63;1.20;;;;;;;3.79;100.00;100345.97;4876804;29;20040;-74
2023/11/24 02:26:25;;;;;;;6.50;1.48;;;;;;;3.78;100.00;100360.25;4889581;29;20032;-76
2023/11/24 02:28:51;;;;;;;6.00;1.60;;;;;;;3.83;100.00;100355.06;4892765;29;20043;-76
2023/11/24 02:31:17;;;;;;;;;;;;;;;3.83;100.00;100355.88;4888591;29;20067;-75
2023/11/24 02:33:48;;;;;;;5.95;1.00;;;;;;;3.82;100.00;100361.41;4882725;29;20000;-77
2023/11/24 02:36:20;;;;;;;4.07;0.80;;;;;;;3.79;100.00;100372.44;4922665;29;20036;-76
2023/11/24 02:38:49;;;;;;;5.47;1.33;;;;;;;3.83;100.00;100371.75;4893754;29;20135;-76
2023/11/24 02:41:16;;;;;;;3.97;0.90;;;;;;;3.88;100.00;100381.66;4891308;29;20032;-77
2023/11/24 02:43:42;;;;;;;4.40;1.02;;;;;;;3.89;100.00;100367.38;4896290;29;20035;-79
2023/11/24 02:46:12;;;;;;;4.82;0.80;;;;;;;3.92;100.00;100376.69;4894034;29;20043;-76
2023/11/24 02:48:39;;;;;;;9.52;0.80;;;;;;;3.94;100.00;100372.78;4911107;29;20040;-76
2023/11/24 02:51:07;;;;;;;4.07;0.77;;;;;;;3.95;100.00;100366.44;4891489;29;20501;-77
2023/11/24 02:53:36;;;;;;;3.63;0.63;;;;;;;3.95;100.00;100361.13;4909486;29;20046;-75
2023/11/24 02:56:03;;;;;;;7.13;1.27;;;;;;;3.97;100.00;100360.91;4886964;29;20043;-74
2023/11/24 02:58:29;;;;;;;5.40;0.93;;;;;;;3.85;100.00;100352.97;4883962;29;20042;-75
2023/11/24 03:00:56;;;;;;;8.05;1.45;;;;;;;3.88;100.00;100359.66;4892331;29;20040;-75
2023/11/24 03:03:24;;;;;;;5.85;1.23;;;;;;;3.90;100.00;100362.88;4887184;29;20854;-76
2023/11/24 03:05:54;;;;;;;8.27;1.42;;;;;;;3.89;100.00;100353.31;4889464;29;20046;-74
2023/11/24 03:08:19;;;;;;;5.97;1.13;;;;;;;3.80;100.00;100366.94;4880099;29;20063;-75
2023/11/24 03:10:46;;;;;;;11.55;1.67;;;;;;;3.74;100.00;100382.97;4907089;29;20198;-75
2023/11/24 03:13:13;;;;;;;7.80;1.67;;;;;;;3.78;100.00;100382.25;4905877;29;20494;-74
2023/11/24 03:15:42;;;;;;;8.73;1.42;;;;;;;3.75;100.00;100358.09;4903479;29;20047;-75
2023/11/24 03:18:09;;;;;;;5.70;0.98;;;;;;;3.71;100.00;100355.06;4878866;29;20042;-75
2023/11/24 03:20:36;;;;;;;4.43;1.10;;;;;;;3.63;100.00;100347.50;4890264;29;20032;-73
2023/11/24 03:23:02;;;;;;;8.85;1.50;;;;;;;3.62;100.00;100347.75;4892955;29;20086;-73
2023/11/24 03:25:29;;;;;;;10.07;1.55;;;;;;;3.55;100.00;100338.06;4903789;29;20054;-75
2023/11/24 03:27:56;;;;;;;8.48;1.50;;;;;;;3.60;100.00;100339.22;4891596;29;20536;-74
2023/11/24 03:30:24;;;;;;;7.55;1.35;;;;;;;3.59;100.00;100308.47;4891425;29;20047;-73
2023/11/24 03:32:49;;;;;;;9.90;1.30;;;;;;;3.60;100.00;100326.00;4867754;29;20062;-74
2023/11/24 03:35:15;;;;;;;8.93;1.50;;;;;;;3.62;100.00;100321.25;4890114;29;20040;-73
2023/11/24 03:37:42;;;;;;;7.90;1.25;;;;;;;3.62;100.00;100321.25;4892382;29;20572;-74
2023/11/24 03:40:09;;;;;;;5.95;1.00;;;;;;;3.62;100.00;100323.91;4885218;29;20501;-75
2023/11/24 03:42:35;;;;;;;7.72;0.77;;;;;;;3.63;100.00;100336.09;4902397;29;20768;-73
2023/11/24 03:45:04;;;;;;;7.65;1.48;;;;;;;3.64;100.00;100340.34;4893568;29;20573;-75
2023/11/24 03:47:32;;;;;;;9.30;1.10;;;;;;;3.64;100.00;100340.34;4876002;29;20047;-73
2023/11/24 03:49:59;;;;;;;10.43;1.80;;;;;;;3.62;100.00;100353.84;4919980;29;20044;-73
2023/11/24 03:52:26;;;;;;;6.40;0.95;;;;;;;3.63;100.00;100344.06;4919546;29;20058;-73
2023/11/24 03:54:51;;;;;;;;;;;;;;;3.65;100.00;100350.72;4891368;29;20046;-73
2023/11/24 03:57:18;;;;;;;10.27;1.67;;;;;;;3.67;100.00;100353.16;4894654;29;19926;-76
2023/11/24 03:59:44;;;;;;;4.75;0.98;;;;;;;3.66;100.00;100356.81;4910594;29;20040;-75
2023/11/24 04:02:10;;;;;;;10.18;1.13;;;;;;;3.68;100.00;100346.81;4887541;29;20043;-74
2023/11/24 04:04:35;;;;;;;10.38;1.45;;;;;;;3.72;100.00;100345.28;4904424;29;20036;-73
2023/11/24 04:07:02;;;;;;;9.23;2.15;;;;;;;3.68;100.00;100329.06;4897229;29;20146;-75
2023/11/24 04:09:27;;;;;;;7.90;1.30;;;;;;;3.69;100.00;100314.00;4890666;29;20624;-74
2023/11/24 04:11:54;;;;;;;12.70;1.75;;;;;;;3.65;100.00;100296.94;4902540;29;20040;-73
2023/11/24 04:14:21;;;;;;;8.85;1.30;;;;;;;3.61;100.00;100295.81;4891278;29;20035;-74
2023/11/24 04:16:47;;;;;;;17.42;1.58;;;;;;;3.57;100.00;100295.47;4884284;29;20468;-75
2023/11/24 04:19:16;;;;;;;8.00;1.08;;;;;;;3.55;100.00;100318.75;4891480;29;20064;-74
2023/11/24 04:21:42;;;;;;;6.68;1.65;;;;;;;3.50;100.00;100295.59;4892271;29;20516;-74
2023/11/24 04:24:08;;;;;;;9.35;2.05;;;;;;;3.47;100.00;100327.84;4905552;29;20048;-74
2023/11/24 04:26:34;;;;;;;9.60;1.55;;;;;;;3.41;100.00;100326.13;4923748;29;20109;-74
2023/11/24 04:29:00;;;;;;;6.70;1.50;;;;;;;3.35;100.00;100319.13;4908502;29;20059;-74
2023/11/24 04:31:25;;;;;;;8.57;1.50;;;;;;;3.38;100.00;100296.66;4888570;29;20075;-74
2023/11/24 04:33:51;;;;;;;7.75;1.40;;;;;;;3.33;100.00;100292.09;4892610;29;20044;-74
2023/11/24 04:36:17;;;;;;;16.02;1.65;;;;;;;3.30;100.00;100279.28;4877610;29;20066;-74
2023/11/24 04:38:45;;;;;;;7.97;1.77;;;;;;;3.30;100.00;100268.72;4890707;29;20039;-75
2023/11/24 04:41:12;;;;;;;8.73;1.40;;;;;;;3.25;100.00;100260.66;4905588;29;20053;-74
2023/11/24 04:43:38;;;;;;;7.90;1.20;;;;;;;3.17;100.00;100269.75;4888440;29;20178;-74
2023/11/24 04:46:04;;;;;;;9.73;1.38;;;;;;;3.16;100.00;100264.72;4905020;29;20051;-75
2023/11/24 04:48:30;;;;;;;6.20;1.10;;;;;;;3.16;100.00;100267.34;4885827;29;20470;-76
2023/11/24 04:50:56;;;;;;;10.93;1.27;;;;;;;3.10;100.00;100273.56;4915931;29;20171;-75
2023/11/24 04:53:22;;;;;;;5.28;0.80;;;;;;;3.10;100.00;100278.88;4899565;29;20126;-76
2023/11/24 04:55:48;;;;;;;6.43;0.90;;;;;;;3.10;100.00;100266.44;4905318;29;20425;-75
2023/11/24 04:58:14;;;;;;;6.40;1.00;;;;;;;3.10;100.00;100268.28;4893872;29;20036;-75
2023/11/24 05:00:39;;;;;;;9.60;1.15;;;;;;;3.04;100.00;100274.50;4913520;29;20070;-76
2023/11/24 05:03:08;;;;;;;11.50;1.40;;;;;;;3.04;100.00;100263.91;4898138;29;20035;-75
2023/11/24 05:05:33;;;;;;;;;;;;;;;3.01;100.00;100266.00;4898315;29;20074;-76
2023/11/24 05:07:59;;;;;;;6.00;1.20;;;;;;;3.08;100.00;100273.81;4911105;29;19949;-77
2023/11/24 05:10:25;;;;;;;5.38;1.10;;;;;;;3.08;100.00;100281.75;4902975;29;20486;-77
2023/11/24 05:12:51;;;;;;;4.35;1.40;;;;;;;3.11;100.00;100281.28;4890396;29;20039;-76
2023/11/24 05:15:16;;;;;;;8.98;1.27;;;;;;;3.13;100.00;100289.81;4881551;29;20047;-77
2023/11/24 05:17:42;;;;;;;6.68;1.20;;;;;;;3.12;100.00;100276.81;4906352;29;20047;-74
2023/11/24 05:20:12;;;;;;;7.40;1.35;;;;;;;3.15;100.00;100282.44;4894156;29;20044;-75
2023/11/24 05:22:39;;;;;;;10.48;1.92;;;;;;;3.16;100.00;100277.94;4910688;29;20147;-75
2023/11/24 05:25:05;;;;;;;7.40;1.70;;;;;;;3.21;100.00;100264.81;4892467;29;20130;-75
2023/11/24 05:27:31;;;;;;;10.38;1.95;;;;;;;3.24;100.00;100269.63;4908414;29;20126;-74
2023/11/24 05:29:58;;;;;;;10.63;1.75;;;;;;;3.25;100.00;100252.72;4905452;29;20475;-75
2023/11/24 05:32:24;;;;;;;11.18;1.77;;;;;;;3.24;100.00;100259.06;4908674;29;20044;-76
2023/11/24 05:34:51;;;;;;;8.82;1.38;;;;;;;3.25;100.00;100256.19;4866344;29;20047;-73
2023/11/24 05:37:17;;;;;;;15.43;1.65;;;;;;;3.23;100.00;100250.31;4878731;29;20031;-73
2023/11/24 05:39:43;;;;;;;6.75;1.20;;;;;;;3.22;100.00;100266.44;4880926;29;20040;-74
2023/11/24 05:42:08;;;;;;;12.55;1.85;;;;;;;3.15;100.00;100257.81;4892166;29;20126;-74
2023/11/24 05:44:34;;;;;;;8.63;1.52;;;;;;;3.16;100.00;100262.06;4878810;29;20047;-74
2023/11/24 05:47:04;;;;;;;7.78;1.85;;;;;;;3.10;100.00;100257.69;4891136;29;20044;-74
2023/11/24 05:49:33;;;;;;;9.15;1.27;;;;;;;3.11;100.00;100256.66;4901803;29;20067;-74
2023/11/24 05:51:59;;;;;;;7.07;1.08;;;;;;;3.09;100.00;100266.66;4899368;29;20039;-74
2023/11/24 05:54:25;;;;;;;10.75;1.40;;;;;;;3.11;100.00;100264.59;4894544;29;20050;-74
2023/11/24 05:56:51;;;;;;;7.25;0.98;;;;;;;3.13;100.00;100257.25;4913354;29;20031;-73
2023/11/24 05:59:17;;;;;;;8.93;1.58;;;;;;;3.09;100.00;100250.78;4892574;29;20401;-75
2023/11/24 06:01:43;;;;;;;11.90;1.20;;;;;;;3.09;100.00;100246.31;4892674;29;20143;-75
2023/11/24 06:04:09;;;;;;;7.40;1.40;;;;;;;3.10;100.00;100231.25;4909905;29;20043;-75
2023/11/24 06:06:35;;;;;;;7.50;1.45;;;;;;;3.10;100.00;100236.53;4891687;29;20051;-75
2023/11/24 06:09:02;;;;;;;10.95;1.80;;;;;;;3.05;100.00;100239.06;4891328;29;20032;-74
2023/11/24 06:11:28;;;;;;;8.57;1.50;;;;;;;3.06;100.00;100230.91;4891804;29;20451;-75
2023/11/24 06:13:54;;;;;;;12.75;1.63;;;;;;;3.05;100.00;100225.84;4909526;29;20039;-74
2023/11/24 06:16:20;;;;;;;6.35;1.27;;;;;;;3.04;100.00;100221.59;4885151;29;20135;-74
2023/11/24 06:18:46;;;;;;;8.77;1.60;;;;;;;3.07;100.00;100229.88;4920751;29;20109;-75
2023/11/24 06:21:12;;;;;;;7.80;1.83;;;;;;;3.11;100.00;100235.47;4910086;29;20094;-74
2023/11/24 06:23:39;;;;;;;;;;;;;;;3.10;100.00;100233.88;4902509;29;20189;-74
2023/11/24 06:26:08;;;;;;;9.32;1.75;;;;;;;3.10;100.00;100223.31;4910517;29;19914;-74
2023/11/24 06:28:34;;;;;;;8.27;1.52;;;;;;;3.11;100.00;100228.34;4897500;29;20107;-75
2023/11/24 06:31:00;;;;;;;8.90;1.58;;;;;;;3.12;100.00;100234.47;4878862;29;20023;-73
2023/11/24 06:33:27;;;;;;;8.88;1.23;;;;;;;3.11;100.00;100223.06;4893587;29;20044;-73
2023/11/24 06:35:54;;;;;;;10.93;1.30;;;;;;;3.11;100.00;100227.53;4877963;29;20032;-75
2023/11/24 06:38:21;;;;;;;12.25;1.60;;;;;;;3.12;100.00;100226.53;4910081;29;20028;-73
2023/11/24 06:40:47;;;;;;;8.43;1.30;;;;;;;3.12;100.00;100234.47;4886177;29;20098;-74
2023/11/24 06:43:12;;;;;;;6.75;1.30;;;;;;;3.09;100.00;100235.72;4892626;29;20079;-75
2023/11/24 06:45:39;;;;;;;8.18;1.50;;;;;;;3.10;100.00;100247.91;4908099;29;20042;-74
2023/11/24 06:48:05;;;;;;;9.23;1.88;;;;;;;2.99;100.00;100220.44;4894633;29;20047;-74
2023/11/24 06:50:32;;;;;;;11.30;1.40;;;;;;;2.98;100.00;100250.59;4911939;29;20091;-78
2023/11/24 06:52:59;;;;;;;12.20;2.28;;;;;;;2.96;100.00;100246.56;4908031;29;20046;-75
2023/11/24 06:55:26;;;;;;;11.35;1.52;;;;;;;2.94;100.00;100238.84;4891323;29;20044;-75
2023/11/24 06:57:52;;;;;;;6.57;0.80;;;;;;;2.88;100.00;100229.19;4897710;29;20043;-74
2023/11/24 07:00:18;;;;;;;5.28;1.38;;;;;;;2.77;100.00;100203.56;4878626;29;20042;-75
2023/11/24 07:02:46;;;;;;;2.35;0.50;;;;;;;2.66;100.00;100209.66;4887541;29;20042;-75
2023/11/24 07:05:12;;;;;;;4.63;0.80;;;;;;;2.56;100.00;100214.72;4895234;29;20039;-75
2023/11/24 07:07:41;;;;;;;2.58;0.50;;;;;;;2.53;100.00;100215.97;4878886;29;20090;-74
2023/11/24 07:10:07;;;;;;;3.90;1.20;;;;;;;2.47;100.00;100217.69;4904671;29;20024;-74
2023/11/24 07:12:34;;;;;;;2.33;0.73;;;;;;;2.44;100.00;100226.09;4905816;29;20532;-77
2023/11/24 07:15:03;;;;;;;4.78;1.10;;;;;;;2.40;100.00;100222.28;4906237;29;20060;-79
2023/11/24 07:17:33;;;;;;;3.50;0.70;;;;;;;2.40;100.00;100209.06;4905761;29;20048;-78
2023/11/24 07:19:58;;;;;;;5.68;1.23;;;;;;;2.34;100.00;100206.53;4880602;29;20532;-76
2023/11/24 07:22:25;;;;;;;7.20;1.20;;;;;;;2.33;100.00;100211.03;4921877;29;20040;-75
2023/11/24 07:24:51;;;;;;;3.17;0.85;;;;;;;2.31;100.00;100218.38;4896685;29;20035;-76
2023/11/24 07:27:17;;;;;;;6.28;1.38;;;;;;;2.29;100.00;100199.28;4909301;29;20042;-75
2023/11/24 07:29:43;;;;;;;5.30;1.00;;;;;;;2.32;100.00;100208.63;4908047;29;20039;-74
2023/11/24 07:32:11;;;;;;;5.63;1.35;;;;;;;2.30;100.00;100208.81;4875416;29;20043;-75
2023/11/24 07:34:37;;;;;;;6.80;1.10;;;;;;;2.31;100.00;100210.44;4880692;29;20039;-76
2023/11/24 07:37:03;;;;;;;7.15;1.35;;;;;;;2.30;100.00;100187.69;4884143;29;20556;-75
2023/11/24 07:39:30;;;;;;;6.32;1.15;;;;;;;2.33;100.00;100186.44;4886705;29;20123;-76
2023/11/24 07:41:58;;;;;;;6.63;0.95;;;;;;;2.32;100.00;100182.19;4924487;29;20095;-78
2023/11/24 07:44:31;;;;;;;6.22;1.25;;;;;;;2.28;100.00;100176.53;4894741;29;20048;-76
2023/11/24 07:46:57;;;;;;;5.50;0.95;;;;;;;2.27;100.00;100174.94;4878652;29;20067;-76
2023/11/24 07:49:22;;;;;;;8.43;1.08;;;;;;;2.27;100.00;100174.94;4925697;29;20036;-76
2023/11/24 07:51:49;;;;;;;6.25;0.70;;;;;;;2.28;100.00;100181.84;4888333;29;20100;-75
2023/11/24 07:54:15;;;;;;;7.15;1.25;;;;;;;2.26;100.00;100175.19;4886983;29;20071;-75
2023/11/24 07:56:41;;;;;;;4.57;0.80;;;;;;;2.28;100.00;100187.13;4890497;29;20082;-79
2023/11/24 07:59:09;;;;;;;5.93;1.20;;;;;;;2.36;100.00;100194.69;4903723;29;20060;-76
2023/11/24 08:01:36;;;;;;;4.35;0.93;;;;;;;2.38;100.00;100174.16;4884183;29;20035;-75
2023/11/24 08:04:01;;;;;;;;;;;;;;;2.39;100.00;100178.41;4877422;29;20497;-75
2023/11/24 08:06:27;;;;;;;3.38;1.00;;;;;;;2.38;100.00;100171.50;4893148;29;19926;-76
2023/11/24 08:08:52;;;;;;;5.22;0.90;;;;;;;2.39;100.00;100181.03;4903542;29;20060;-75
2023/11/24 08:11:18;;;;;;;6.63;1.10;;;;;;;2.40;100.00;100185.28;4898534;29;20051;-75
2023/11/24 08:13:44;;;;;;;7.82;1.42;;;;;;;2.42;100.00;100185.84;4890239;29;20040;-75
2023/11/24 08:16:12;;;;;;;7.13;1.13;;;;;;;2.44;100.00;100172.44;4888651;29;20052;-76
2023/11/24 08:18:38;;;;;;;6.25;1.00;;;;;;;2.41;100.00;100165.75;4885915;29;20043;-75
2023/11/24 08:21:04;;;;;;;7.28;1.17;;;;;;;2.50;100.00;100157.47;4887891;29;20095;-78
2023/11/24 08:23:32;;;;;;;8.30;1.20;;;;;;;2.59;100.00;100150.81;4910194;29;20496;-78
2023/11/24 08:25:58;;;;;;;8.55;0.98;;;;;;;2.64;100.00;100148.25;4898215;29;20039;-76
2023/11/24 08:28:25;;;;;;;5.70;1.15;;;;;;;2.72;100.00;100140.00;4893876;29;20038;-76
2023/11/24 08:30:50;;;;;;;4.40;1.05;;;;;;;2.75;100.00;100158.03;4892205;29;20027;-75
2023/11/24 08:33:18;;;;;;;5.68;1.45;;;;;;;2.76;100.00;100146.41;4884744;29;20126;-74
2023/11/24 08:35:45;;;;;;;5.25;0.80;;;;;;;2.81;100.00;100138.59;4886287;29;20046;-74
2023/11/24 08:38:11;;;;;;;11.00;1.80;;;;;;;2.88;100.00;100143.75;4899521;29;20039;-76
2023/11/24 08:40:39;;;;;;;5.78;1.27;;;;;;;2.93;100.00;100141.22;4913593;29;20443;-76
2023/11/24 08:43:05;;;;;;;7.85;1.35;;;;;;;2.92;100.00;100143.06;4882024;29;20040;-77
2023/11/24 08:45:33;;;;;;;6.45;1.20;;;;;;;2.92;100.00;100135.13;4884734;29;20701;-77
2023/11/24 08:48:03;;;;;;;7.72;1.02;;;;;;;2.96;100.00;100127.53;4918355;29;20044;-76
2023/11/24 08:50:31;;;;;;;7.45;1.02;;;;;;;3.01;100.00;100122.34;4896025;29;20023;-76
2023/11/24 08:52:57;;;;;;;9.98;2.10;;;;;;;3.12;100.00;100123.34;4915241;29;20107;-75
2023/11/24 08:55:24;;;;;;;7.90;1.30;;;;;;;3.14;100.00;100116.78;4895192;29;20508;-77
2023/11/24 08:57:49;;;;;;;11.15;1.50;;;;;;;3.24;100.00;100134.66;4899854;29;20035;-74
2023/11/24 09:00:15;;;;;;;8.27;1.45;;;;;;;3.35;100.00;100122.44;4894036;29;20519;-75
2023/11/24 09:02:41;;;;;;;5.97;1.20;;;;;;;3.37;100.00;100110.56;4897683;29;20042;-75
2023/11/24 09:05:10;;;;;;;7.75;2.25;;;;;;;3.39;100.00;100121.75;4911484;29;20035;-75
2023/11/24 09:07:36;;;;;;;10.10;1.30;;;;;;;3.35;100.00;100110.00;4911699;29;20088;-74
2023/11/24 09:10:02;;;;;;;5.72;1.25;;;;;;;3.33;100.00;100104.16;4898272;29;20270;-73
2023/11/24 09:12:28;;;;;;;9.10;1.08;;;;;;;3.31;100.00;100093.00;4898032;29;20485;-75
2023/11/24 09:14:54;;;;;;;8.73;1.10;;;;;;;3.30;100.00;100080.81;4894579;29;20413;-73
2023/11/24 09:17:20;;;;;;;5.70;1.40;;;;;;;3.28;100.00;100090.84;4894105;29;20040;-74
2023/11/24 09:19:46;;;;;;;7.00;0.90;;;;;;;3.26;100.00;100083.13;4896065;29;20042;-74
2023/11/24 09:22:12;;;;;;;;;;;;;;;3.26;100.00;100083.13;4899048;29;20070;-75
2023/11/24 09:24:38;;;;;;;7.93;1.05;;;;;;;3.17;100.00;100089.84;4900197;29;19958;-73
2023/11/24 09:27:04;;;;;;;5.60;1.00;;;;;;;3.17;100.00;100084.53;4884309;29;20046;-75
2023/11/24 09:29:30;;;;;;;;;;;;;;;3.19;100.00;100084.31;4908415;29;20087;-76
2023/11/24 09:31:58;;;;;;;12.02;2.15;;;;;;;3.22;100.00;100075.91;4909720;29;19927;-74
2023/11/24 09:34:24;;;;;;;7.45;1.30;;;;;;;3.34;100.00;100062.63;4901369;29;20115;-74
2023/11/24 09:36:50;;;;;;;6.88;0.95;;;;;;;3.46;100.00;100072.09;4898136;29;20034;-75
2023/11/24 09:39:20;;;;;;;9.18;1.48;;;;;;;3.53;100.00;100059.50;4891366;29;20044;-74
2023/11/24 09:41:51;;;;;;;7.40;1.50;;;;;;;3.54;100.00;100063.75;4894810;29;20043;-74
2023/11/24 09:44:18;;;;;;;8.75;2.53;;;;;;;3.51;100.00;100042.25;4912910;29;20062;-74
2023/11/24 09:46:46;;;;;;;6.45;1.17;;;;;;;3.49;100.00;100031.91;4898759;29;20035;-73
2023/11/24 09:49:15;;;;;;;9.07;1.50;;;;;;;3.46;100.00;100027.09;4913817;29;20035;-74
2023/11/24 09:51:41;;;;;;;9.48;1.38;;;;;;;3.38;100.00;100026.69;4889123;29;20043;-74
2023/11/24 09:54:13;;;;;;;9.90;1.45;;;;;;;3.51;100.00;100032.47;4889777;29;20044;-78
2023/11/24 09:56:43;;;;;;;9.55;1.50;;;;;;;3.67;100.00;100030.88;4906604;29;20095;-78
2023/11/24 09:59:09;;;;;;;6.03;1.27;;;;;;;3.82;100.00;100039.06;4902732;29;20044;-79
2023/11/24 10:01:36;;;;;;;6.53;1.45;;;;;;;3.93;100.00;100058.56;4918633;29;20035;-79
2023/11/24 10:04:03;;;;;;;9.15;1.48;;;;;;;3.93;100.00;100045.31;4889951;29;20031;-80
2023/11/24 10:06:29;;;;;;;6.50;1.90;;;;;;;3.84;100.00;100014.97;4906765;29;20048;-76
2023/11/24 10:08:57;;;;;;;11.15;1.65;;;;;;;3.83;100.00;100031.91;4885576;29;20205;-79
2023/11/24 10:11:28;;;;;;;8.05;1.83;;;;;;;3.77;100.00;100011.69;4895179;29;20032;-80
2023/11/24 10:13:57;;;;;;;11.13;1.85;;;;;;;3.71;100.00;100015.28;4913104;29;20040;-79
2023/11/24 10:16:23;;;;;;;10.00;1.70;;;;;;;3.64;100.00;100009.34;4883394;29;20055;-80
2023/11/24 10:18:55;;;;;;;9.07;1.88;;;;;;;3.56;100.00;100006.06;4903672;29;20517;-81
2023/11/24 10:21:22;;;;;;;7.93;2.20;;;;;;;3.58;100.00;100000.53;4913751;29;20044;-80
2023/11/24 10:23:48;;;;;;;;;;;;;;;3.61;100.00;99980.72;4932233;29;20036;-82
2023/11/24 10:26:16;;;;;;;9.35;1.40;;;;;;;3.60;100.00;99987.06;4899691;29;19927;-80
2023/11/24 10:28:44;;;;;;;9.30;1.42;;;;;;;3.58;100.00;99989.94;4895603;29;20088;-79
2023/11/24 10:31:12;;;;;;;12.38;2.03;;;;;;;3.64;100.00;99980.22;4902289;29;20496;-79
2023/11/24 10:33:41;;;;;;;6.38;1.23;;;;;;;3.63;100.00;99975.97;4929497;29;20040;-81
2023/11/24 10:36:08;;;;;;;7.35;1.30;;;;;;;3.62;100.00;99995.56;4914547;29;20061;-78
2023/11/24 10:38:37;;;;;;;10.20;1.30;;;;;;;3.63;100.00;99978.63;4906544;29;20039;-76
2023/11/24 10:41:04;;;;;;;7.43;1.50;;;;;;;3.60;100.00;99979.13;4900241;29;20060;-73
2023/11/24 10:43:34;;;;;;;;;;;;;;;3.58;100.00;99973.25;4893454;29;20043;-74
2023/11/24 10:46:03;;;;;;;9.10;1.40;;;;;;;3.43;100.00;99950.00;4900774;29;19954;-74
2023/11/24 10:48:36;;;;;;;4.70;1.20;;;;;;;3.33;100.00;99947.22;4918495;29;20051;-74
2023/11/24 10:51:17;;;;;;;8.55;1.58;;;;;;;3.28;100.00;99932.06;4895713;29;20046;-76
2023/11/24 10:53:49;;;;;;;7.35;0.80;;;;;;;3.26;100.00;99934.94;4928440;29;20024;-75
2023/11/24 10:56:20;;;;;;;6.78;1.20;;;;;;;3.26;100.00;99931.50;4910640;29;20059;-75
2023/11/24 10:58:51;;;;;;;8.80;1.10;;;;;;;3.41;100.00;99928.28;4901145;29;20481;-75
2023/11/24 11:01:16;;;;;;;7.35;1.15;;;;;;;3.49;100.00;99928.66;4899237;29;20108;-77
2023/11/24 11:03:44;;;;;;;4.10;1.30;;;;;;;3.58;100.00;99926.41;4881072;29;20139;-77
2023/11/24 11:06:24;;;;;;;6.38;1.10;;;;;;;3.71;100.00;99922.59;4910024;29;20565;-77
2023/11/24 11:09:08;;;;;;;9.23;1.33;;;;;;;3.70;100.00;99908.56;4913031;29;20044;-77
2023/11/24 11:12:19;;;;;;;6.10;1.50;;;;;;;3.75;100.00;99903.34;4895715;29;20095;-78
2023/11/24 11:14:46;;;;;;;6.93;1.30;;;;;;;3.73;100.00;99910.75;4918862;29;20035;-79
2023/11/24 11:17:18;;;;;;;6.10;1.10;;;;;;;3.71;100.00;99898.78;4905248;29;20096;-79
2023/11/24 11:20:12;;;;;;;6.70;0.93;;;;;;;3.76;100.00;99912.88;4916752;29;20039;-80
2023/11/24 11:22:40;;;;;;;5.82;0.98;;;;;;;3.73;100.00;99920.53;4911641;29;20036;-81
2023/11/24 11:25:27;;;;;;;4.82;1.17;;;;;;;3.68;100.00;99925.75;4882345;29;20031;-80
2023/11/24 11:27:56;;;;;;;4.65;0.88;;;;;;;3.61;100.00;99920.63;4887060;29;20074;-81